Data for 05/14/2016

Time Sea-Level Adjusted Pressure Absolute Pressure Temperature Relative Humidity Dew Point   
(mb) (inHg) (mb) (inHg) (C) (F) (%) (C) (F)
00:05 1026 30.3 855 25.25 3.2 37.7 70 -1.7 29
00:10 1026 30.3 855 25.25 3.1 37.5 71 -1.6 29.1
00:15 1026 30.3 855 25.25 3 37.4 72 -1.6 29.1
00:20 1026 30.3 855 25.25 3 37.4 71 -1.7 29
00:25 1026 30.3 855 25.25 3 37.4 71 -1.7 29
00:30 1026 30.3 855 25.25 3 37.4 71 -1.7 29
00:35 1026 30.3 855 25.25 2.9 37.3 72 -1.7 29
00:40 1026 30.3 855 25.25 2.9 37.2 72 -1.7 29
00:45 1026 30.3 855 25.25 2.9 37.2 71 -1.8 28.7
00:50 1026 30.3 855 25.25 2.9 37.3 71 -1.9 28.7
00:55 1026 30.3 855 25.25 3 37.4 69 -2 28.3
01:00 1026 30.3 855 25.25 3.1 37.6 69 -2 28.5
01:05 1026 30.3 855 25.25 3.1 37.6 69 -2.1 28.3
01:10 1026 30.3 855 25.25 3.1 37.6 69 -2 28.4
01:15 1026 30.3 855 25.25 3.1 37.6 69 -2 28.4
01:20 1026 30.3 855 25.25 3.1 37.5 70 -1.9 28.5
01:25 1026 30.3 855 25.25 3 37.3 71 -1.8 28.8
01:30 1026 30.3 855 25.25 2.8 37.1 72 -1.7 28.9
01:35 1026 30.3 855 25.25 2.7 36.9 73 -1.7 29
01:40 1026 30.3 855 25.25 2.6 36.7 73 -1.7 28.9
01:45 1026 30.3 855 25.25 2.6 36.7 73 -1.8 28.8
01:50 1026 30.3 855 25.25 2.6 36.8 73 -1.8 28.8
01:55 1026 30.3 855 25.25 2.6 36.7 72 -1.9 28.6
02:00 1025 30.27 855 25.25 2.7 36.8 72 -2 28.5
02:05 1025 30.27 855 25.25 2.7 36.9 71 -2 28.5
02:10 1025 30.27 855 25.25 2.8 37 71 -2 28.3
02:15 1025 30.27 855 25.25 2.8 37.1 71 -2 28.4
02:20 1025 30.27 855 25.25 2.8 37 71 -2 28.4
02:25 1025 30.27 854 25.22 2.7 36.9 71 -2 28.4
02:30 1025 30.27 854 25.22 2.7 36.9 71 -2 28.3
02:35 1025 30.27 854 25.22 2.7 36.8 70 -2.2 28.1
02:40 1025 30.27 854 25.22 2.6 36.8 71 -2 28.4
02:45 1025 30.27 854 25.22 2.5 36.6 72 -2.1 28.3
02:50 1025 30.27 854 25.22 2.5 36.5 72 -2.1 28.3
02:55 1025 30.27 854 25.22 2.5 36.5 72 -2.1 28.2
03:00 1025 30.27 854 25.22 2.5 36.5 71 -2.1 28.1
03:05 1025 30.27 854 25.22 2.5 36.5 71 -2.3 27.9
03:10 1025 30.27 854 25.22 2.5 36.5 71 -2.2 28
03:15 1025 30.27 854 25.22 2.5 36.5 71 -2.2 28
03:20 1025 30.27 854 25.22 2.5 36.4 71 -2.3 27.8
03:25 1025 30.27 854 25.22 2.4 36.4 71 -2.3 27.9
03:30 1025 30.27 854 25.22 2.3 36.2 71 -2.4 27.7
03:35 1025 30.27 854 25.22 2.4 36.3 70 -2.5 27.4
03:40 1025 30.27 854 25.22 2.4 36.4 69 -2.6 27.2
03:45 1025 30.27 854 25.22 2.6 36.6 68 -2.7 27.1
03:50 1025 30.27 854 25.22 2.6 36.6 68 -2.8 27
03:55 1025 30.27 854 25.22 2.6 36.7 67 -2.8 26.9
04:00 1025 30.27 854 25.22 2.6 36.7 67 -2.9 26.8
04:05 1025 30.27 854 25.22 2.6 36.6 67 -3 26.7
04:10 1025 30.27 854 25.22 2.6 36.7 66 -3.1 26.5
04:15 1025 30.27 854 25.22 2.6 36.7 66 -3.2 26.3
04:20 1025 30.27 854 25.22 2.6 36.6 66 -3.2 26.3
04:25 1025 30.27 854 25.22 2.5 36.5 66 -3.2 26.2
04:30 1025 30.27 854 25.22 2.4 36.4 67 -3.1 26.4
04:35 1025 30.27 854 25.22 2.3 36.1 68 -3.1 26.4
04:40 1025 30.27 854 25.22 2.3 36.1 69 -2.9 26.7
04:45 1025 30.27 854 25.22 2.2 36 69 -3 26.6
04:50 1025 30.27 854 25.22 2.2 36 69 -2.9 26.7
04:55 1025 30.27 854 25.22 2.3 36.1 69 -2.9 26.8
05:00 1025 30.27 854 25.22 2.2 36 68 -3 26.6
05:05 1025 30.27 854 25.22 2.4 36.3 68 -3 26.7
05:10 1025 30.27 854 25.22 2.4 36.4 68 -2.9 26.9
05:15 1025 30.27 854 25.22 2.4 36.4 69 -2.6 27.3
05:20 1025 30.27 854 25.22 2.4 36.4 69 -2.7 27.2
05:25 1025 30.27 854 25.22 2.6 36.6 67 -2.9 26.8
05:30 1025 30.27 854 25.22 2.7 36.8 68 -2.6 27.4
05:35 1025 30.27 854 25.22 2.7 36.9 68 -2.6 27.4
05:40 1025 30.27 854 25.22 2.8 37 68 -2.6 27.4
05:45 1025 30.27 854 25.22 2.8 37.1 67 -2.6 27.2
05:50 1025 30.27 854 25.22 2.9 37.3 67 -2.6 27.4
05:55 1025 30.27 854 25.22 3 37.4 67 -2.5 27.5
06:00 1025 30.27 854 25.22 3.1 37.6 66 -2.6 27.3
06:05 1025 30.27 854 25.22 3.2 37.7 65 -2.8 26.9
06:10 1025 30.27 854 25.22 3.3 37.9 66 -2.4 27.6
06:15 1025 30.27 854 25.22 3.4 38.1 65 -2.6 27.3
06:20 1025 30.27 854 25.22 3.5 38.2 64 -2.7 27.2
06:25 1025 30.27 854 25.22 3.5 38.3 63 -2.9 26.9
06:30 1025 30.27 854 25.22 3.7 38.6 63 -2.8 27
06:35 1025 30.27 854 25.22 3.7 38.7 62 -2.9 26.7
06:40 1025 30.27 854 25.22 3.6 38.5 63 -2.9 26.9
06:45 1025 30.27 854 25.22 3.6 38.4 62 -3 26.7
06:50 1025 30.27 854 25.22 3.8 38.8 61 -3 26.6
06:55 1025 30.27 854 25.22 4 39.2 60 -3 26.6
07:00 1025 30.27 854 25.22 4.2 39.5 58 -3.3 26
07:05 1025 30.27 854 25.22 4.3 39.7 59 -3.1 26.4
07:10 1025 30.27 854 25.22 4.2 39.6 58 -3.3 26.1
07:15 1025 30.27 854 25.22 4.2 39.6 59 -3.1 26.4
07:20 1025 30.27 854 25.22 4.4 40 59 -3 26.6
07:25 1025 30.27 854 25.22 4.5 40.1 58 -3.1 26.4
07:30 1025 30.27 854 25.22 4.6 40.2 58 -3 26.6
07:35 1025 30.27 854 25.22 4.5 40 58 -3.1 26.4
07:40 1025 30.27 854 25.22 4.5 40 58 -3.1 26.4
07:45 1025 30.27 854 25.22 4.5 40.1 57 -3.2 26.3
07:50 1025 30.27 854 25.22 4.6 40.3 57 -3.1 26.4
07:55 1025 30.27 854 25.22 4.6 40.3 58 -3 26.6
08:00 1025 30.27 854 25.22 4.8 40.6 57 -2.9 26.7
08:05 1024 30.24 854 25.22 4.8 40.6 57 -2.9 26.7
08:10 1024 30.24 854 25.22 5 41 56 -3 26.5
08:15 1024 30.24 854 25.22 4.9 40.8 57 -3 26.5
08:20 1024 30.24 854 25.22 4.8 40.7 56 -3.2 26.3
08:25 1024 30.24 854 25.22 4.9 40.9 57 -2.9 26.8
08:30 1024 30.24 854 25.22 5.1 41.1 56 -3.1 26.4
08:35 1024 30.24 853 25.19 5.2 41.3 56 -2.9 26.8
08:40 1024 30.24 853 25.19 5.3 41.5 56 -2.8 27
08:45 1024 30.24 853 25.19 5.5 41.9 55 -2.7 27.1
08:50 1024 30.24 853 25.19 5.5 41.8 55 -2.8 27
08:55 1024 30.24 853 25.19 5.6 42.1 55 -2.7 27.2
09:00 1024 30.24 853 25.19 5.5 41.8 54 -3.2 26.3
09:05 1024 30.24 853 25.19 5.4 41.7 54 -3.2 26.3
09:10 1024 30.24 853 25.19 5.5 41.9 53 -3.4 25.9
09:15 1024 30.24 853 25.19 5.5 42 53 -3.2 26.3
09:20 1024 30.24 853 25.19 5.8 42.5 52 -3.2 26.3
09:25 1024 30.24 853 25.19 5.5 41.8 54 -3.1 26.4
09:30 1024 30.24 853 25.19 5.5 41.9 54 -3.2 26.3
09:35 1024 30.24 853 25.19 5.5 42 52 -3.5 25.6
09:40 1024 30.24 853 25.19 5.8 42.4 52 -3.2 26.3
09:45 1024 30.24 853 25.19 5.6 42 52 -3.5 25.7
09:50 1024 30.24 853 25.19 5.5 42 52 -3.6 25.6
09:55 1024 30.24 853 25.19 5.6 42.1 53 -3.2 26.3
10:00 1024 30.24 853 25.19 5.7 42.2 52 -3.4 25.9
10:05 1024 30.24 853 25.19 5.7 42.2 50 -3.9 25
10:10 1024 30.24 853 25.19 6 42.8 50 -3.5 25.6
10:15 1024 30.24 853 25.19 6.1 43 50 -3.4 25.8
10:20 1024 30.24 853 25.19 6.2 43.2 50 -3.5 25.7
10:25 1024 30.24 853 25.19 6 42.9 50 -3.5 25.8
10:30 1024 30.24 853 25.19 6.2 43.2 50 -3.4 25.9
10:35 1024 30.24 853 25.19 6.3 43.3 51 -3.2 26.3
10:40 1024 30.24 853 25.19 6.5 43.6 49 -3.5 25.7
10:45 1024 30.24 853 25.19 6.6 43.9 50 -3 26.5
10:50 1024 30.24 853 25.19 6.9 44.3 49 -3 26.6
10:55 1024 30.24 853 25.19 6.8 44.2 49 -3.2 26.2
11:00 1024 30.24 853 25.19 6.8 44.2 49 -3 26.5
11:05 1024 30.24 853 25.19 6.7 44 49 -3.2 26.3
11:10 1024 30.24 853 25.19 6.4 43.6 49 -3.4 25.9
11:15 1024 30.24 853 25.19 6.6 43.9 50 -3 26.5
11:20 1023 30.21 853 25.19 7.2 44.9 48 -3.1 26.5
11:25 1023 30.21 853 25.19 7.1 44.8 49 -3 26.6
11:30 1023 30.21 852 25.16 7.2 45 51 -2.3 27.8
11:35 1023 30.21 852 25.16 7.6 45.7 47 -3.1 26.4
11:40 1023 30.21 852 25.16 7.1 44.8 49 -2.9 26.8
11:45 1023 30.21 852 25.16 7 44.7 48 -3.3 26
11:50 1023 30.21 852 25.16 7.1 44.8 48 -3.2 26.2
11:55 1023 30.21 852 25.16 6.8 44.2 49 -3.2 26.2
12:00 1023 30.21 852 25.16 7.2 44.9 48 -3.2 26.3
12:05 1023 30.21 852 25.16 7.3 45.2 47 -3.3 26.1
12:10 1023 30.21 852 25.16 7.6 45.6 47 -3.1 26.4
12:15 1023 30.21 852 25.16 7.4 45.3 48 -2.8 27
12:20 1023 30.21 852 25.16 7.8 46 47 -2.9 26.8
12:25 1022 30.18 852 25.16 7.5 45.6 48 -2.8 27
12:30 1022 30.18 852 25.16 7.7 45.8 46 -3.1 26.5
12:35 1022 30.18 852 25.16 8.1 46.5 45 -3.1 26.5
12:40 1022 30.18 852 25.16 8.4 47 45 -2.8 27
12:45 1022 30.18 852 25.16 7.9 46.3 46 -3.1 26.5
12:50 1022 30.18 851 25.13 8.3 47 45 -2.9 26.9
12:55 1022 30.18 851 25.13 8.1 46.6 46 -2.9 26.7
13:00 1022 30.18 851 25.13 8.3 47 46 -2.6 27.3
13:05 1022 30.18 851 25.13 8.4 47.1 45 -2.8 27
13:10 1022 30.18 851 25.13 8.3 46.9 45 -2.8 26.9
13:15 1022 30.18 851 25.13 8.5 47.2 45 -2.7 27.2
13:20 1022 30.18 851 25.13 8.4 47.1 46 -2.6 27.4
13:25 1022 30.18 851 25.13 8.7 47.6 44 -2.9 26.8
13:30 1022 30.18 851 25.13 8.5 47.3 44 -3 26.7
13:35 1022 30.18 851 25.13 8.4 47.2 45 -2.8 26.9
13:40 1022 30.18 851 25.13 8.6 47.4 44 -3 26.7
13:45 1022 30.18 851 25.13 8.5 47.3 45 -2.8 27
13:50 1021 30.15 851 25.13 8.5 47.3 45 -2.8 27
13:55 1021 30.15 851 25.13 8.4 47.2 45 -2.8 27
14:00 1021 30.15 851 25.13 8.4 47.1 46 -2.5 27.5
14:05 1021 30.15 851 25.13 8.3 47 45 -2.8 27
14:10 1022 30.18 851 25.13 8.6 47.6 44 -2.8 27
14:15 1021 30.15 851 25.13 8.8 47.8 45 -2.6 27.3
14:20 1021 30.15 850 25.1 8.9 48 44 -2.7 27.1
14:25 1021 30.15 850 25.1 9.1 48.4 44 -2.5 27.5
14:30 1021 30.15 850 25.1 9 48.2 44 -2.5 27.5
14:35 1021 30.15 850 25.1 8.9 47.9 44 -2.7 27.1
14:40 1021 30.15 850 25.1 9 48.1 45 -2.3 27.8
14:45 1021 30.15 850 25.1 9 48.3 45 -2.4 27.7
14:50 1021 30.15 850 25.1 8.9 48 44 -2.6 27.4
14:55 1021 30.15 850 25.1 8.8 47.8 45 -2.6 27.4
15:00 1021 30.15 850 25.1 8.9 48 44 -2.6 27.3
15:05 1021 30.15 850 25.1 8.9 48 44 -2.6 27.4
15:10 1021 30.15 850 25.1 9.1 48.4 43 -2.7 27.1
15:15 1021 30.15 850 25.1 9.5 49 42 -2.7 27.2
15:20 1021 30.15 850 25.1 9.6 49.2 43 -2.4 27.7
15:25 1021 30.15 850 25.1 9.2 48.6 42 -2.9 26.8
15:30 1021 30.15 850 25.1 9 48.2 43 -2.8 27
15:35 1021 30.15 850 25.1 8.9 47.9 43 -2.9 26.8
15:40 1021 30.15 850 25.1 9.1 48.3 45 -2.4 27.7
15:45 1020 30.12 850 25.1 9.1 48.4 44 -2.4 27.6
15:50 1020 30.12 850 25.1 9.2 48.6 44 -2.5 27.6
15:55 1020 30.12 849 25.07 8.8 47.9 44 -2.7 27.2
16:00 1020 30.12 849 25.07 8.8 47.8 44 -2.7 27.2
16:05 1020 30.12 849 25.07 8.6 47.5 45 -2.6 27.4
16:10 1020 30.12 849 25.07 8.5 47.3 45 -2.8 27
16:15 1020 30.12 849 25.07 8.6 47.5 45 -2.6 27.3
16:20 1020 30.12 849 25.07 8.7 47.7 45 -2.5 27.5
16:25 1020 30.12 849 25.07 8.7 47.7 45 -2.4 27.7
16:30 1020 30.12 849 25.07 8.9 48 45 -2.5 27.5
16:35 1020 30.12 849 25.07 8.8 47.9 45 -2.3 27.8
16:40 1020 30.12 849 25.07 9 48.2 45 -2.4 27.7
16:45 1020 30.12 849 25.07 8.9 48.1 45 -2.2 28
16:50 1020 30.12 849 25.07 8.8 47.8 46 -2.1 28.3
16:55 1020 30.12 849 25.07 8.6 47.5 46 -2.2 28
17:00 1020 30.12 849 25.07 8.5 47.3 47 -2.1 28.3
17:05 1020 30.12 849 25.07 8.7 47.7 46 -2.4 27.8
17:10 1020 30.12 849 25.07 8.4 47.2 48 -2 28.4
17:15 1020 30.12 849 25.07 8.2 46.7 48 -2.1 28.3
17:20 1020 30.12 849 25.07 8.2 46.8 48 -2 28.4
17:25 1020 30.12 849 25.07 8.4 47 48 -2.1 28.2
17:30 1020 30.12 849 25.07 8.2 46.8 49 -1.9 28.6
17:35 1020 30.12 849 25.07 8.1 46.6 49 -1.8 28.7
17:40 1020 30.12 849 25.07 8 46.5 50 -1.8 28.7
17:45 1020 30.12 849 25.07 8 46.4 50 -1.8 28.8
17:50 1020 30.12 849 25.07 7.9 46.2 50 -1.8 28.7
17:55 1020 30.12 849 25.07 7.7 45.9 51 -1.8 28.7
18:00 1020 30.12 849 25.07 7.5 45.6 52 -1.7 28.9
18:05 1019 30.09 849 25.07 7.6 45.6 52 -1.7 29
18:10 1019 30.09 849 25.07 7.5 45.5 52 -1.7 28.9
18:15 1019 30.09 849 25.07 7.4 45.4 53 -1.6 29
18:20 1019 30.09 849 25.07 7.4 45.3 53 -1.6 29.1
18:25 1019 30.09 848 25.04 7.3 45.2 53 -1.6 29.1
18:30 1019 30.09 848 25.04 7.3 45.1 53 -1.7 28.9
18:35 1019 30.09 848 25.04 7.2 45 53 -1.7 28.9
18:40 1019 30.09 848 25.04 7.2 44.9 53 -1.7 29
18:45 1019 30.09 848 25.04 7.1 44.7 53 -1.7 28.9
18:50 1019 30.09 848 25.04 7 44.7 54 -1.7 29
18:55 1019 30.09 848 25.04 7 44.6 54 -1.6 29.2
19:00 1019 30.09 848 25.04 6.9 44.5 55 -1.5 29.3
19:05 1019 30.09 848 25.04 6.9 44.4 55 -1.5 29.3
19:10 1019 30.09 848 25.04 6.8 44.3 56 -1.3 29.6
19:15 1019 30.09 848 25.04 6.8 44.2 56 -1.3 29.6
19:20 1019 30.09 848 25.04 6.8 44.2 56 -1.4 29.4
19:25 1019 30.09 848 25.04 6.7 44.1 56 -1.4 29.4
19:30 1019 30.09 848 25.04 6.7 44.1 56 -1.4 29.5
19:35 1019 30.09 848 25.04 6.7 44.1 56 -1.5 29.3
19:40 1019 30.09 848 25.04 6.7 44 57 -1.2 29.8
19:45 1019 30.09 848 25.04 6.6 43.8 57 -1.2 29.8
19:50 1019 30.09 848 25.04 6.5 43.7 57 -1.3 29.7
19:55 1019 30.09 848 25.04 6.5 43.6 58 -1.3 29.7
20:00 1019 30.09 848 25.04 6.5 43.7 57 -1.4 29.6
20:05 1019 30.09 848 25.04 6.5 43.7 58 -1.1 30
20:10 1019 30.09 848 25.04 6.5 43.6 57 -1.3 29.6
20:15 1019 30.09 848 25.04 6.5 43.7 57 -1.4 29.4
20:20 1019 30.09 848 25.04 6.5 43.8 57 -1.3 29.6
20:25 1019 30.09 848 25.04 6.5 43.8 57 -1.4 29.5
20:30 1019 30.09 848 25.04 6.5 43.8 57 -1.3 29.7
20:35 1019 30.09 848 25.04 6.5 43.7 58 -1.3 29.7
20:40 1019 30.09 848 25.04 6.5 43.6 57 -1.3 29.6
20:45 1019 30.09 848 25.04 6.5 43.7 57 -1.3 29.7
20:50 1019 30.09 848 25.04 6.5 43.7 57 -1.3 29.6
20:55 1019 30.09 848 25.04 6.5 43.7 57 -1.4 29.5
21:00 1019 30.09 848 25.04 6.5 43.7 57 -1.3 29.6
21:05 1019 30.09 848 25.04 6.5 43.6 58 -1.3 29.7
21:10 1019 30.09 848 25.04 6.5 43.6 57 -1.3 29.6
21:15 1018 30.06 848 25.04 6.5 43.7 57 -1.3 29.6
21:20 1018 30.06 848 25.04 6.5 43.6 58 -1.3 29.7
21:25 1018 30.06 848 25.04 6.5 43.6 58 -1.2 29.8
21:30 1019 30.09 848 25.04 6.5 43.7 58 -1.2 29.8
21:35 1019 30.09 848 25.04 6.5 43.7 58 -1.1 29.9
21:40 1019 30.09 848 25.04 6.5 43.7 58 -1.1 30
21:45 1019 30.09 848 25.04 6.5 43.7 58 -1.1 30
21:50 1019 30.09 848 25.04 6.5 43.7 58 -1.1 30.1
21:55 1018 30.06 848 25.04 6.5 43.7 58 -1.1 30.1
22:00 1018 30.06 848 25.04 6.5 43.6 59 -1 30.2
22:05 1018 30.06 848 25.04 6.5 43.7 59 -0.9 30.3
22:10 1018 30.06 848 25.04 6.5 43.6 59 -0.9 30.4
22:15 1018 30.06 847 25.01 6.5 43.7 59 -0.8 30.5
22:20 1018 30.06 847 25.01 6.5 43.6 60 -0.8 30.6
22:25 1018 30.06 847 25.01 6.5 43.7 60 -0.8 30.6
22:30 1018 30.06 847 25.01 6.5 43.8 60 -0.7 30.7
22:35 1018 30.06 847 25.01 6.6 43.8 60 -0.6 30.9
22:40 1018 30.06 847 25.01 6.5 43.8 60 -0.6 30.9
22:45 1018 30.06 847 25.01 6.6 43.8 60 -0.6 31
22:50 1018 30.06 847 25.01 6.6 43.8 61 -0.5 31.1
22:55 1018 30.06 847 25.01 6.6 43.8 60 -0.5 31.1
23:00 1018 30.06 848 25.04 6.6 43.9 60 -0.5 31.1
23:05 1018 30.06 848 25.04 6.6 43.9 60 -0.5 31.1
23:10 1018 30.06 848 25.04 6.6 43.9 60 -0.5 31.1
23:15 1018 30.06 848 25.04 6.6 43.9 60 -0.5 31.1
23:20 1018 30.06 848 25.04 6.6 43.9 61 -0.3 31.4
23:25 1018 30.06 848 25.04 6.5 43.7 61 -0.4 31.3
23:30 1018 30.06 848 25.04 6.5 43.7 62 -0.3 31.4
23:35 1018 30.06 848 25.04 6.5 43.8 61 -0.4 31.3
23:40 1019 30.09 848 25.04 6.5 43.8 61 -0.3 31.4
23:45 1019 30.09 848 25.04 6.5 43.8 61 -0.4 31.4
23:50 1019 30.09 848 25.04 6.6 43.8 61 -0.4 31.4
23:55 1018 30.06 848 25.04 6.5 43.8 62 -0.1 31.8
24:00 1018 30.06 848 25.04 6.4 43.6 65 0.3 32.6